Time;durP1;ratioP1;P1;durP2;ratioP2;P2;SDS_P1;SDS_P2;PMS_P1;PMS_P2;Temp;Humidity;BMP_temperature;BMP_pressure;BME280_temperature;BME280_humidity;BME280_pressure;Samples;Min_cycle;Max_cycle;Signal;HPM_P1;HPM_P2
2021/06/02 00:00:21;;;;;;;6.55;3.47;;;16.60;62.10;;;;;;5010887;28;20041;-72
2021/06/02 00:02:54;;;;;;;7.28;3.17;;;16.50;62.30;;;;;;5010749;28;20038;-74
2021/06/02 00:05:22;;;;;;;6.78;2.83;;;16.40;62.80;;;;;;5011162;28;20030;-73
2021/06/02 00:07:48;;;;;;;6.68;3.15;;;16.10;63.40;;;;;;5011147;28;20109;-73
2021/06/02 00:10:17;;;;;;;6.90;3.25;;;16.00;63.90;;;;;;5010833;28;20038;-72
2021/06/02 00:12:42;;;;;;;5.47;3.28;;;16.00;63.80;;;;;;5010180;28;20113;-74
2021/06/02 00:15:09;;;;;;;6.82;3.05;;;16.10;63.80;;;;;;5012186;28;20394;-73
2021/06/02 00:17:35;;;;;;;5.70;2.53;;;15.90;64.20;;;;;;5012048;28;20129;-71
2021/06/02 00:20:05;;;;;;;5.53;3.08;;;15.80;64.50;;;;;;5009862;28;20132;-72
2021/06/02 00:22:31;;;;;;;5.65;3.20;;;15.80;64.90;;;;;;4990923;28;20038;-72
2021/06/02 00:24:57;;;;;;;7.38;3.25;;;15.70;65.20;;;;;;5008921;28;20219;-72
2021/06/02 00:27:23;;;;;;;5.60;2.72;;;15.70;65.30;;;;;;5010070;28;20100;-73
2021/06/02 00:29:50;;;;;;;6.85;2.97;;;15.80;65.10;;;;;;5009385;28;20034;-72
2021/06/02 00:32:20;;;;;;;5.72;3.25;;;15.90;65.00;;;;;;5011526;28;20061;-71
2021/06/02 00:34:48;;;;;;;7.38;2.80;;;16.00;64.90;;;;;;5010501;28;20386;-72
2021/06/02 00:37:14;;;;;;;5.68;2.78;;;16.00;64.50;;;;;;5010713;28;20026;-73
2021/06/02 00:39:45;;;;;;;7.93;3.00;;;16.00;64.40;;;;;;5011728;28;20030;-77
2021/06/02 00:42:11;;;;;;;5.43;3.30;;;16.00;64.80;;;;;;4995793;28;20030;-73
2021/06/02 00:44:37;;;;;;;5.25;2.90;;;15.90;65.00;;;;;;5015033;28;20037;-73
2021/06/02 00:47:03;;;;;;;6.07;3.00;;;16.00;65.10;;;;;;4996306;28;20889;-73
2021/06/02 00:49:29;;;;;;;6.15;2.88;;;16.10;65.00;;;;;;4997794;28;20038;-73
2021/06/02 00:52:06;;;;;;;4.70;3.22;;;16.10;65.00;;;;;;5014753;28;20033;-73
2021/06/02 00:54:35;;;;;;;4.75;3.00;;;16.10;65.00;;;;;;4995982;28;20125;-73
2021/06/02 00:57:19;;;;;;;6.03;3.47;;;16.10;65.00;;;;;;4993747;28;20042;-73
2021/06/02 00:59:50;;;;;;;5.45;2.83;;;16.10;65.10;;;;;;4992189;28;20039;-74
2021/06/02 01:02:17;;;;;;;7.10;3.35;;;16.10;65.30;;;;;;4997340;28;20027;-73
2021/06/02 01:04:44;;;;;;;6.65;2.80;;;16.10;65.30;;;;;;5013492;28;20504;-76
2021/06/02 01:07:11;;;;;;;8.98;3.38;;;16.10;65.10;;;;;;5014654;28;20033;-73
2021/06/02 01:09:44;;;;;;;4.30;2.90;;;16.10;64.80;;;;;;5013858;28;20486;-72
2021/06/02 01:12:14;;;;;;;4.68;2.70;;;16.00;64.60;;;;;;5012950;28;20538;-75
2021/06/02 01:14:41;;;;;;;5.85;2.97;;;15.80;64.90;;;;;;5014321;28;20117;-72
2021/06/02 01:17:08;;;;;;;3.90;3.00;;;15.70;65.30;;;;;;5014432;28;20034;-73
2021/06/02 01:19:34;;;;;;;5.13;3.08;;;15.50;65.80;;;;;;5014176;28;20026;-72
2021/06/02 01:22:00;;;;;;;6.72;3.38;;;15.50;66.20;;;;;;4992048;28;20104;-72
2021/06/02 01:24:31;;;;;;;8.05;3.50;;;15.50;66.50;;;;;;4994071;28;20057;-73
2021/06/02 01:26:58;;;;;;;4.38;3.38;;;15.50;66.50;;;;;;4993062;28;20467;-73
2021/06/02 01:29:25;;;;;;;5.97;3.33;;;15.40;66.70;;;;;;5006928;28;20029;-73
2021/06/02 01:31:59;;;;;;;5.45;3.47;;;15.20;67.00;;;;;;5012684;28;20030;-74
2021/06/02 01:34:56;;;;;;;6.03;3.58;;;15.10;67.50;;;;;;5013495;28;20108;-73
2021/06/02 01:37:45;;;;;;;6.05;3.38;;;15.00;67.90;;;;;;5014159;28;20114;-73
2021/06/02 01:40:20;;;;;;;8.30;3.45;;;14.90;68.20;;;;;;5013256;28;20463;-72
2021/06/02 01:42:49;;;;;;;6.18;3.28;;;14.80;68.50;;;;;;5012587;28;20080;-77
2021/06/02 01:45:52;;;;;;;9.50;3.30;;;14.80;69.00;;;;;;5013303;28;20021;-72
2021/06/02 01:48:28;;;;;;;6.40;3.20;;;14.70;69.40;;;;;;5013065;28;20494;-72
2021/06/02 01:51:24;;;;;;;6.38;3.20;;;14.60;69.50;;;;;;5012590;28;20036;-73
2021/06/02 01:54:41;;;;;;;7.88;3.28;;;14.50;69.80;;;;;;5011811;28;20032;-77
2021/06/02 01:57:31;;;;;;;8.48;3.42;;;14.50;70.20;;;;;;4987946;28;20076;-72
2021/06/02 02:00:04;;;;;;;8.45;3.35;;;14.50;70.40;;;;;;5012623;28;20038;-72
2021/06/02 02:02:36;;;;;;;6.32;3.42;;;14.40;70.70;;;;;;5013800;28;20088;-71
2021/06/02 02:05:22;;;;;;;9.68;3.28;;;14.40;70.90;;;;;;5012040;28;20026;-72
2021/06/02 02:07:59;;;;;;;7.05;2.97;;;14.50;70.90;;;;;;5014101;28;20034;-76
2021/06/02 02:10:40;;;;;;;10.23;3.30;;;14.50;70.80;;;;;;5012991;28;20513;-72
2021/06/02 02:13:30;;;;;;;7.15;3.25;;;14.50;70.70;;;;;;5011952;28;20034;-73
2021/06/02 02:16:15;;;;;;;7.50;3.13;;;14.70;70.40;;;;;;5011976;28;20052;-73
2021/06/02 02:18:59;;;;;;;6.93;2.78;;;14.80;70.00;;;;;;5013084;28;20038;-73
2021/06/02 02:21:43;;;;;;;8.18;2.95;;;14.90;69.80;;;;;;5012470;28;20141;-73
2021/06/02 02:24:11;;;;;;;4.57;3.08;;;14.90;69.60;;;;;;5013000;28;20033;-71
2021/06/02 02:27:05;;;;;;;3.42;2.78;;;14.80;69.70;;;;;;5013283;28;20107;-72
2021/06/02 02:30:07;;;;;;;8.35;3.10;;;14.80;70.10;;;;;;5011948;28;20553;-73
2021/06/02 02:32:53;;;;;;;5.28;2.80;;;14.70;70.30;;;;;;4990064;28;20041;-72
2021/06/02 02:35:56;;;;;;;3.92;2.85;;;14.80;70.70;;;;;;5012078;28;20482;-72
2021/06/02 02:38:40;;;;;;;8.40;3.35;;;14.90;70.20;;;;;;5012927;28;20432;-73
2021/06/02 02:41:31;;;;;;;5.28;3.33;;;14.80;70.00;;;;;;5007758;28;20085;-73
2021/06/02 02:44:01;;;;;;;5.22;3.58;;;14.70;70.30;;;;;;4993104;28;20038;-73
2021/06/02 02:46:50;;;;;;;7.38;3.60;;;14.50;70.50;;;;;;5008800;28;20050;-74
2021/06/02 02:49:40;;;;;;;5.95;3.20;;;14.40;70.80;;;;;;4991363;28;20034;-73
2021/06/02 02:52:49;;;;;;;7.07;3.47;;;14.50;70.60;;;;;;4992901;28;20471;-74
2021/06/02 02:55:20;;;;;;;7.80;3.80;;;14.50;70.40;;;;;;4992742;28;20623;-73
2021/06/02 02:58:00;;;;;;;5.32;3.30;;;14.50;70.40;;;;;;5003810;28;20518;-73
2021/06/02 03:00:41;;;;;;;5.75;3.50;;;14.40;70.70;;;;;;5012935;28;20124;-73
2021/06/02 03:03:39;;;;;;;10.10;4.10;;;14.30;71.10;;;;;;5010823;28;20029;-73
2021/06/02 03:06:15;;;;;;;6.13;3.60;;;14.20;71.60;;;;;;5011399;28;20056;-73
2021/06/02 03:09:03;;;;;;;9.45;3.33;;;14.10;72.00;;;;;;5011301;28;20053;-73
2021/06/02 03:11:41;;;;;;;6.95;3.47;;;14.00;72.20;;;;;;5010687;28;20441;-73
2021/06/02 03:14:18;;;;;;;3.97;3.40;;;14.10;72.10;;;;;;5012352;28;20029;-73
2021/06/02 03:16:57;;;;;;;8.35;4.05;;;14.20;71.90;;;;;;5012325;28;20093;-73
2021/06/02 03:19:34;;;;;;;6.07;3.70;;;14.10;71.90;;;;;;4983234;28;20034;-73
2021/06/02 03:22:14;;;;;;;6.20;4.45;;;14.00;72.30;;;;;;5011587;28;20045;-78
2021/06/02 03:25:02;;;;;;;8.52;4.45;;;13.80;72.60;;;;;;5012328;28;20025;-73
2021/06/02 03:27:49;;;;;;;4.85;4.35;;;13.80;72.90;;;;;;5011993;28;20022;-73
2021/06/02 03:30:37;;;;;;;7.18;4.45;;;13.70;73.10;;;;;;5010007;28;20077;-73
2021/06/02 03:33:12;;;;;;;6.07;4.15;;;13.70;73.10;;;;;;5011520;28;20105;-74
2021/06/02 03:36:12;;;;;;;5.47;4.45;;;13.70;73.30;;;;;;5012276;28;20058;-73
2021/06/02 03:38:47;;;;;;;6.60;4.30;;;13.60;73.40;;;;;;5011762;28;20033;-73
2021/06/02 03:41:43;;;;;;;7.13;4.50;;;13.60;73.50;;;;;;5010339;28;20041;-73
2021/06/02 03:44:27;;;;;;;4.85;4.35;;;13.60;73.30;;;;;;5011607;28;20025;-73
2021/06/02 03:47:21;;;;;;;5.60;4.57;;;13.50;73.40;;;;;;5011849;28;20040;-73
2021/06/02 03:50:11;;;;;;;6.90;4.35;;;13.50;73.40;;;;;;5012024;28;20030;-73
2021/06/02 03:53:10;;;;;;;6.57;4.45;;;13.50;73.50;;;;;;5010119;28;20033;-73
2021/06/02 03:55:58;;;;;;;6.10;5.17;;;13.60;73.70;;;;;;5011579;28;20478;-73
2021/06/02 03:58:36;;;;;;;9.82;5.45;;;13.90;73.10;;;;;;5011048;28;20034;-74
2021/06/02 04:01:11;;;;;;;8.88;4.68;;;13.80;73.00;;;;;;4992330;28;20034;-77
2021/06/02 04:03:55;;;;;;;8.03;5.03;;;13.70;73.30;;;;;;4992632;28;20490;-72
2021/06/02 04:06:48;;;;;;;7.47;5.32;;;13.80;73.20;;;;;;4985288;28;20036;-72
2021/06/02 04:09:26;;;;;;;7.68;4.82;;;13.80;73.00;;;;;;5002444;28;20041;-72
2021/06/02 04:11:54;;;;;;;7.20;6.03;;;13.90;72.90;;;;;;5010932;28;20113;-73
2021/06/02 04:14:29;;;;;;;7.68;5.15;;;13.90;72.80;;;;;;5011084;28;20076;-72
2021/06/02 04:16:55;;;;;;;6.47;5.10;;;14.00;72.60;;;;;;5011329;28;20060;-73
2021/06/02 04:19:22;;;;;;;5.78;4.43;;;14.50;71.90;;;;;;5015056;28;20034;-72
2021/06/02 04:21:48;;;;;;;5.90;5.30;;;15.50;70.10;;;;;;5015564;28;20049;-72
2021/06/02 04:24:17;;;;;;;10.38;5.28;;;16.80;67.10;;;;;;5014189;28;20080;-73
2021/06/02 04:26:44;;;;;;;7.75;4.78;;;17.80;64.30;;;;;;5015303;28;20030;-73
2021/06/02 04:29:12;;;;;;;11.80;4.85;;;18.90;61.10;;;;;;5013362;28;20482;-74
2021/06/02 04:31:57;;;;;;;7.97;4.28;;;19.70;58.60;;;;;;5015523;28;20033;-73
2021/06/02 04:34:24;;;;;;;8.25;4.35;;;20.00;56.80;;;;;;5015034;28;20056;-71
2021/06/02 04:36:52;;;;;;;6.70;4.43;;;20.40;55.80;;;;;;5015391;28;20045;-72
2021/06/02 04:39:19;;;;;;;8.73;4.55;;;20.80;54.10;;;;;;5012871;28;20080;-73
2021/06/02 04:41:46;;;;;;;5.75;4.03;;;21.20;52.90;;;;;;4994831;28;20057;-72
2021/06/02 04:44:16;;;;;;;9.02;4.47;;;21.50;51.90;;;;;;4993763;28;20387;-72
2021/06/02 04:46:47;;;;;;;6.60;3.88;;;22.20;50.20;;;;;;5007263;28;20474;-72
2021/06/02 04:49:14;;;;;;;7.75;3.90;;;22.60;48.80;;;;;;5013463;28;20034;-74
2021/06/02 04:51:59;;;;;;;5.38;3.60;;;23.10;48.10;;;;;;5015188;28;20025;-73
2021/06/02 04:54:55;;;;;;;6.35;3.90;;;23.80;46.80;;;;;;5013317;28;20466;-74
2021/06/02 04:57:58;;;;;;;5.05;4.05;;;24.40;45.10;;;;;;5012682;28;20064;-72
2021/06/02 05:00:44;;;;;;;6.15;4.05;;;24.60;44.70;;;;;;5014450;28;20040;-72
2021/06/02 05:03:47;;;;;;;4.65;3.72;;;25.30;43.40;;;;;;5013099;28;20026;-75
2021/06/02 05:06:42;;;;;;;5.18;3.60;;;25.50;42.10;;;;;;5013699;28;20018;-73
2021/06/02 05:09:22;;;;;;;6.13;3.47;;;25.40;42.20;;;;;;5014771;28;20017;-76
2021/06/02 05:12:13;;;;;;;5.50;3.33;;;25.80;41.70;;;;;;5013592;28;20100;-72
2021/06/02 05:15:02;;;;;;;6.72;3.67;;;25.90;40.50;;;;;;5013872;28;20022;-72
2021/06/02 05:18:08;;;;;;;4.35;3.70;;;25.20;41.20;;;;;;5013571;28;20030;-72
2021/06/02 05:23:43;;;;;;;6.65;3.20;;;25.40;40.90;;;;;;5012638;28;20052;-73
2021/06/02 05:26:32;;;;;;;5.63;3.83;;;25.70;40.40;;;;;;5014638;28;20022;-73
2021/06/02 05:29:16;;;;;;;5.38;3.25;;;25.70;39.90;;;;;;5013584;28;20041;-73
2021/06/02 05:31:54;;;;;;;6.10;3.78;;;25.80;40.40;;;;;;5014380;28;20477;-72
2021/06/02 05:34:57;;;;;;;5.55;3.45;;;26.20;40.70;;;;;;5012426;28;20030;-73
2021/06/02 05:37:56;;;;;;;5.80;3.33;;;27.00;39.30;;;;;;5012188;28;20029;-72
2021/06/02 05:40:54;;;;;;;4.60;2.67;;;27.10;37.90;;;;;;5012558;28;20129;-73
2021/06/02 05:43:43;;;;;;;4.43;2.88;;;27.40;37.40;;;;;;4993978;28;20030;-73
2021/06/02 05:46:18;;;;;;;4.47;2.45;;;27.80;36.20;;;;;;5012565;28;20065;-72
2021/06/02 05:49:02;;;;;;;5.38;2.45;;;28.30;36.20;;;;;;5012729;28;20034;-73
2021/06/02 05:51:52;;;;;;;4.40;2.50;;;28.10;35.60;;;;;;5013174;28;20128;-73
2021/06/02 05:54:55;;;;;;;4.72;2.28;;;28.20;35.70;;;;;;5013171;28;20022;-73
2021/06/02 05:57:48;;;;;;;4.50;2.35;;;28.50;35.40;;;;;;4995463;28;20027;-74
2021/06/02 06:00:32;;;;;;;4.13;2.05;;;28.80;34.90;;;;;;5013825;28;20379;-76
2021/06/02 06:03:21;;;;;;;3.60;2.42;;;29.00;34.70;;;;;;5013108;28;20030;-73
2021/06/02 06:06:11;;;;;;;5.57;2.75;;;28.90;34.50;;;;;;5000236;28;20096;-72
2021/06/02 06:09:05;;;;;;;5.38;2.78;;;29.00;34.70;;;;;;5012574;28;20772;-72
2021/06/02 06:11:52;;;;;;;3.00;2.15;;;28.60;34.40;;;;;;5006669;28;20022;-74
2021/06/02 06:14:36;;;;;;;4.90;2.13;;;28.40;35.00;;;;;;5003092;28;20102;-76
2021/06/02 06:17:36;;;;;;;3.55;2.42;;;28.60;35.20;;;;;;5003835;28;20034;-74
2021/06/02 06:20:22;;;;;;;6.32;2.38;;;29.30;34.30;;;;;;4945254;28;20137;-73
2021/06/02 06:23:15;;;;;;;4.40;1.75;;;29.70;34.00;;;;;;4996033;28;20542;-73
2021/06/02 06:25:46;;;;;;;;;;;29.80;34.10;;;;;;5012664;28;20030;-73
2021/06/02 06:28:24;;;;;;;5.57;2.20;;;30.00;33.40;;;;;;5010465;28;19916;-73
2021/06/02 06:30:50;;;;;;;3.78;2.10;;;30.20;33.80;;;;;;5011732;28;20034;-73
2021/06/02 06:33:18;;;;;;;4.25;2.33;;;30.30;33.20;;;;;;5012789;28;20022;-73
2021/06/02 06:35:46;;;;;;;5.38;2.45;;;30.10;33.20;;;;;;5016726;28;20080;-73
2021/06/02 06:38:43;;;;;;;5.35;3.13;;;30.40;33.40;;;;;;5023735;28;20092;-74
2021/06/02 06:41:13;;;;;;;5.75;2.40;;;30.30;33.60;;;;;;4987878;28;20573;-73
2021/06/02 06:43:41;;;;;;;3.78;1.70;;;30.60;33.10;;;;;;4991237;28;20117;-74
2021/06/02 06:46:08;;;;;;;9.40;1.83;;;30.70;32.70;;;;;;5005836;28;20070;-74
2021/06/02 06:48:36;;;;;;;5.18;2.17;;;31.10;32.30;;;;;;5012309;28;20113;-74
2021/06/02 06:51:02;;;;;;;6.03;1.90;;;31.20;32.00;;;;;;4995720;28;20557;-74
2021/06/02 06:53:29;;;;;;;4.95;1.58;;;31.20;32.00;;;;;;5010905;28;20112;-74
2021/06/02 06:55:57;;;;;;;4.78;1.67;;;31.20;31.80;;;;;;4995515;28;20042;-74
2021/06/02 06:58:24;;;;;;;3.75;1.40;;;31.30;31.50;;;;;;5011882;28;20026;-77
2021/06/02 07:00:51;;;;;;;3.45;1.55;;;30.60;32.20;;;;;;5012669;28;20538;-74
2021/06/02 07:03:17;;;;;;;7.72;1.80;;;30.30;32.70;;;;;;4995541;28;20041;-74
2021/06/02 07:05:44;;;;;;;5.30;2.00;;;30.60;32.50;;;;;;5010436;28;20022;-74
2021/06/02 07:08:11;;;;;;;5.55;1.90;;;30.30;33.20;;;;;;5013107;28;20076;-74
2021/06/02 07:10:37;;;;;;;4.78;1.52;;;30.20;33.80;;;;;;5010341;28;20038;-74
2021/06/02 07:13:06;;;;;;;4.43;1.50;;;30.00;33.60;;;;;;5012559;28;20030;-74
2021/06/02 07:15:32;;;;;;;7.18;1.70;;;29.80;33.80;;;;;;5011477;28;20024;-75
2021/06/02 07:18:00;;;;;;;3.22;1.38;;;29.40;33.90;;;;;;5011553;28;20030;-74
2021/06/02 07:20:28;;;;;;;5.50;1.85;;;29.30;34.70;;;;;;5007752;28;20034;-76
2021/06/02 07:22:55;;;;;;;4.13;2.20;;;29.60;34.30;;;;;;5009422;28;20050;-73
2021/06/02 07:25:23;;;;;;;5.78;1.42;;;29.90;33.60;;;;;;5010731;28;20065;-74
2021/06/02 07:27:51;;;;;;;4.50;1.35;;;29.90;33.20;;;;;;5010575;28;20076;-73
2021/06/02 07:30:18;;;;;;;4.93;1.50;;;29.40;33.40;;;;;;5011745;28;20535;-73
2021/06/02 07:32:44;;;;;;;5.32;2.10;;;29.20;33.80;;;;;;5007048;28;20156;-73
2021/06/02 07:35:11;;;;;;;4.90;1.50;;;29.30;34.00;;;;;;5011081;28;20034;-73
2021/06/02 07:37:37;;;;;;;3.30;1.25;;;29.60;34.70;;;;;;5008846;28;20421;-74
2021/06/02 07:40:06;;;;;;;5.00;1.75;;;30.10;34.10;;;;;;5010193;28;20042;-75
2021/06/02 07:42:32;;;;;;;3.30;1.10;;;30.30;33.00;;;;;;5009897;28;20459;-74
2021/06/02 07:44:58;;;;;;;1.67;1.08;;;30.00;33.40;;;;;;5011966;28;20026;-74
2021/06/02 07:47:23;;;;;;;2.15;1.10;;;29.70;33.30;;;;;;5007600;28;20034;-74
2021/06/02 07:49:49;;;;;;;2.45;1.13;;;29.40;33.50;;;;;;5008006;28;20434;-74
2021/06/02 07:52:15;;;;;;;3.33;1.40;;;29.60;33.20;;;;;;5008839;28;20037;-74
2021/06/02 07:54:41;;;;;;;3.20;1.30;;;30.00;33.40;;;;;;5008880;28;20034;-74
2021/06/02 07:57:07;;;;;;;3.83;1.60;;;30.50;32.90;;;;;;5010791;28;20034;-74
2021/06/02 07:59:32;;;;;;;2.20;1.13;;;30.40;32.90;;;;;;5010551;28;20093;-76
2021/06/02 08:02:00;;;;;;;2.95;1.35;;;29.90;33.40;;;;;;5002185;28;20030;-74
2021/06/02 08:04:26;;;;;;;3.25;1.38;;;30.20;33.40;;;;;;5008186;28;20039;-74
2021/06/02 08:06:51;;;;;;;2.38;1.23;;;30.40;33.40;;;;;;5009583;28;20030;-75
2021/06/02 08:09:18;;;;;;;2.38;1.30;;;30.40;33.20;;;;;;5009946;28;20034;-75
2021/06/02 08:11:45;;;;;;;3.13;1.55;;;30.10;33.60;;;;;;5007318;28;20026;-75
2021/06/02 08:14:11;;;;;;;2.95;1.10;;;30.10;33.80;;;;;;5011212;28;20351;-74
2021/06/02 08:16:36;;;;;;;6.90;1.40;;;30.10;33.30;;;;;;5010695;28;20041;-74
2021/06/02 08:19:03;;;;;;;2.83;1.27;;;30.10;33.20;;;;;;5008197;28;20065;-74
2021/06/02 08:21:28;;;;;;;3.25;1.10;;;30.20;32.80;;;;;;5008778;28;20053;-73
2021/06/02 08:23:54;;;;;;;1.92;0.98;;;30.50;32.50;;;;;;5010224;28;20482;-74
2021/06/02 08:26:19;;;;;;;2.75;0.90;;;30.80;31.10;;;;;;5009538;28;20030;-73
2021/06/02 08:28:46;;;;;;;8.20;1.08;;;30.80;31.00;;;;;;5009480;28;20049;-73
2021/06/02 08:31:12;;;;;;;5.15;1.00;;;30.50;31.20;;;;;;5009036;28;20034;-76
2021/06/02 08:33:37;;;;;;;3.47;0.82;;;30.50;31.50;;;;;;5008970;28;20113;-74
2021/06/02 08:36:03;;;;;;;4.78;0.90;;;30.70;30.00;;;;;;4994305;28;20057;-74
2021/06/02 08:38:29;;;;;;;4.03;1.23;;;30.80;31.10;;;;;;5010762;28;20030;-74
2021/06/02 08:40:55;;;;;;;1.73;0.88;;;30.90;31.10;;;;;;5004568;28;20253;-73
2021/06/02 08:43:21;;;;;;;3.53;0.70;;;31.20;31.90;;;;;;5001431;28;20040;-75
2021/06/02 08:45:48;;;;;;;3.67;0.90;;;31.90;30.40;;;;;;5009648;28;20022;-75
2021/06/02 08:48:14;;;;;;;2.10;0.90;;;32.00;30.00;;;;;;5009618;28;20044;-75
2021/06/02 08:50:39;;;;;;;2.53;0.88;;;31.60;29.20;;;;;;5007176;28;20125;-74
2021/06/02 08:53:06;;;;;;;2.72;0.90;;;31.30;29.10;;;;;;5011640;28;20030;-74
2021/06/02 08:55:31;;;;;;;4.47;0.90;;;31.30;29.40;;;;;;5009478;28;20030;-73
2021/06/02 08:57:58;;;;;;;1.73;0.80;;;31.30;29.40;;;;;;5008249;28;20038;-74
2021/06/02 09:00:24;;;;;;;1.58;0.85;;;31.00;29.30;;;;;;5011641;28;20037;-74
2021/06/02 09:02:54;;;;;;;2.53;0.60;;;30.70;29.80;;;;;;5009514;28;20038;-74
2021/06/02 09:05:21;;;;;;;4.18;0.93;;;30.70;29.90;;;;;;5013838;28;20026;-74
2021/06/02 09:07:50;;;;;;;2.83;0.90;;;30.80;29.80;;;;;;5012224;28;20088;-74
2021/06/02 09:10:18;;;;;;;2.88;0.85;;;30.90;30.10;;;;;;5014047;28;20034;-74
2021/06/02 09:12:44;;;;;;;4.22;0.90;;;31.00;29.60;;;;;;5013354;28;20038;-74
2021/06/02 09:15:11;;;;;;;1.95;0.80;;;30.80;30.20;;;;;;4995978;28;20052;-75
2021/06/02 09:17:53;;;;;;;2.65;0.90;;;31.00;28.70;;;;;;5014307;28;20026;-77
2021/06/02 09:20:42;;;;;;;2.22;0.80;;;31.50;28.90;;;;;;5012162;28;20029;-74
2021/06/02 09:23:29;;;;;;;3.72;0.73;;;31.60;28.20;;;;;;5014904;28;20046;-74
2021/06/02 09:26:10;;;;;;;5.28;1.00;;;31.70;28.40;;;;;;5012881;28;20041;-75
2021/06/02 09:28:50;;;;;;;2.70;0.85;;;31.60;28.50;;;;;;5011395;28;20080;-74
2021/06/02 09:31:40;;;;;;;1.65;0.60;;;31.50;28.50;;;;;;5013750;28;20026;-74
2021/06/02 09:34:24;;;;;;;3.72;0.70;;;31.50;27.70;;;;;;5011602;28;20116;-73
2021/06/02 09:37:02;;;;;;;2.88;0.50;;;31.30;28.30;;;;;;5012282;28;20478;-74
2021/06/02 09:39:27;;;;;;;1.55;0.70;;;31.40;28.10;;;;;;5012743;28;20057;-74
2021/06/02 09:41:57;;;;;;;3.03;0.70;;;31.60;27.50;;;;;;5008997;28;20104;-73
2021/06/02 09:44:25;;;;;;;0.90;0.60;;;31.30;27.60;;;;;;5013212;28;20026;-74
2021/06/02 09:47:05;;;;;;;1.73;0.80;;;31.40;27.20;;;;;;5010629;28;20033;-75
2021/06/02 09:49:51;;;;;;;1.63;0.60;;;31.50;27.30;;;;;;5013281;28;20040;-74
2021/06/02 09:52:18;;;;;;;2.58;0.55;;;31.70;26.60;;;;;;5010331;28;20497;-74
2021/06/02 09:54:44;;;;;;;2.88;0.75;;;31.50;26.90;;;;;;5011321;28;20022;-76
2021/06/02 09:57:14;;;;;;;2.35;0.63;;;31.30;27.00;;;;;;5013512;28;20030;-74
2021/06/02 10:00:01;;;;;;;1.90;0.55;;;31.20;27.30;;;;;;5013978;28;20163;-78
2021/06/02 10:02:27;;;;;;;2.28;0.77;;;31.00;26.90;;;;;;5012655;28;20079;-74
2021/06/02 10:05:02;;;;;;;4.00;0.52;;;30.70;27.10;;;;;;5011391;28;20036;-73
2021/06/02 10:07:28;;;;;;;3.15;0.63;;;30.40;27.50;;;;;;5006639;28;20022;-73
2021/06/02 10:10:05;;;;;;;1.45;0.50;;;30.50;27.20;;;;;;5011944;28;20466;-73
2021/06/02 10:12:31;;;;;;;2.58;0.55;;;30.60;27.00;;;;;;5004960;28;20420;-73
2021/06/02 10:14:58;;;;;;;1.70;0.50;;;30.80;27.20;;;;;;4992442;28;20038;-74
2021/06/02 10:17:31;;;;;;;2.20;0.60;;;31.20;27.10;;;;;;4992734;28;20034;-74
2021/06/02 10:20:13;;;;;;;2.40;0.60;;;31.40;26.70;;;;;;5005848;28;20423;-74
2021/06/02 10:22:41;;;;;;;1.23;0.60;;;31.30;26.40;;;;;;5008638;28;20054;-74
2021/06/02 10:25:09;;;;;;;4.15;0.63;;;31.30;27.00;;;;;;5012493;28;20022;-74
2021/06/02 10:27:35;;;;;;;3.90;0.70;;;31.60;26.70;;;;;;5011404;28;20125;-74
2021/06/02 10:30:01;;;;;;;1.92;0.60;;;31.60;26.40;;;;;;5012303;28;20113;-74
2021/06/02 10:32:27;;;;;;;1.38;0.60;;;31.20;26.90;;;;;;5008003;28;20041;-74
2021/06/02 10:34:54;;;;;;;2.13;0.70;;;31.20;27.30;;;;;;5009932;28;20026;-75
2021/06/02 10:37:22;;;;;;;1.45;0.55;;;31.20;27.10;;;;;;5011642;28;20091;-74
2021/06/02 10:40:02;;;;;;;2.80;0.60;;;31.40;26.00;;;;;;5012557;28;20030;-76
2021/06/02 10:42:48;;;;;;;2.75;0.60;;;31.10;26.50;;;;;;5009081;28;20080;-74
2021/06/02 10:45:25;;;;;;;3.00;0.60;;;30.80;26.40;;;;;;5008548;28;20024;-75
2021/06/02 10:47:56;;;;;;;1.15;0.50;;;30.40;26.40;;;;;;5010435;28;20084;-75
2021/06/02 10:50:32;;;;;;;2.05;0.50;;;30.30;26.40;;;;;;5009617;28;20038;-72
2021/06/02 10:52:59;;;;;;;3.95;0.60;;;30.40;26.50;;;;;;5010951;28;20030;-73
2021/06/02 10:55:33;;;;;;;2.05;0.60;;;30.20;26.80;;;;;;5010872;28;20076;-73
2021/06/02 10:58:18;;;;;;;1.30;0.60;;;30.10;27.20;;;;;;5012165;28;20022;-74
2021/06/02 11:00:44;;;;;;;1.20;0.70;;;30.00;26.70;;;;;;5006310;28;20395;-75
2021/06/02 11:03:18;;;;;;;2.65;0.55;;;29.70;27.30;;;;;;4996761;28;20033;-74
2021/06/02 11:05:43;;;;;;;2.17;0.50;;;29.40;27.30;;;;;;5001519;28;20022;-75
2021/06/02 11:08:09;;;;;;;6.15;0.85;;;29.20;28.00;;;;;;4984869;28;20033;-75
2021/06/02 11:10:35;;;;;;;2.20;0.60;;;29.10;27.90;;;;;;4984031;28;20502;-77
2021/06/02 11:13:02;;;;;;;5.05;0.80;;;29.30;27.80;;;;;;5001280;28;20042;-74
2021/06/02 11:15:31;;;;;;;1.83;0.60;;;29.60;28.00;;;;;;5003173;28;20037;-72
2021/06/02 11:18:09;;;;;;;2.47;0.60;;;29.70;27.70;;;;;;5005778;28;20041;-73
2021/06/02 11:20:42;;;;;;;4.13;0.60;;;30.00;27.70;;;;;;5002116;28;20038;-74
2021/06/02 11:23:10;;;;;;;2.65;0.55;;;30.20;27.40;;;;;;4987532;28;20129;-75
2021/06/02 11:25:40;;;;;;;5.57;0.90;;;30.30;27.80;;;;;;5003921;28;20042;-73
2021/06/02 11:28:07;;;;;;;2.80;0.68;;;30.10;27.60;;;;;;5001434;28;20493;-75
2021/06/02 11:30:33;;;;;;;2.63;0.60;;;30.00;27.80;;;;;;5003830;28;20552;-73
2021/06/02 11:33:08;;;;;;;2.50;0.60;;;29.90;27.80;;;;;;5008960;28;20046;-74
2021/06/02 11:35:54;;;;;;;3.45;0.75;;;29.70;27.20;;;;;;5008466;28;20030;-73
2021/06/02 11:38:22;;;;;;;2.38;0.70;;;29.70;27.60;;;;;;5009855;28;20030;-74
2021/06/02 11:40:48;;;;;;;2.25;0.60;;;29.80;27.70;;;;;;5009939;28;20038;-73
2021/06/02 11:43:14;;;;;;;1.00;0.60;;;30.10;27.90;;;;;;5010013;28;20084;-73
2021/06/02 11:45:44;;;;;;;2.58;0.60;;;30.00;27.70;;;;;;5010849;28;20026;-73
2021/06/02 11:48:12;;;;;;;1.88;0.60;;;30.10;27.90;;;;;;5006005;28;20121;-74
2021/06/02 11:50:38;;;;;;;1.73;0.65;;;30.20;28.00;;;;;;5010191;28;20367;-73
2021/06/02 11:53:04;;;;;;;1.35;0.70;;;30.30;27.50;;;;;;5011534;28;20034;-73
2021/06/02 11:55:31;;;;;;;1.33;0.50;;;30.00;26.60;;;;;;5009938;28;20036;-73
2021/06/02 11:57:57;;;;;;;1.13;0.50;;;30.10;28.10;;;;;;5011406;28;20033;-75
2021/06/02 12:00:25;;;;;;;1.40;0.70;;;30.20;27.60;;;;;;5000682;28;20041;-76
2021/06/02 12:02:59;;;;;;;1.30;0.60;;;29.90;27.90;;;;;;4992849;28;20018;-74
2021/06/02 12:05:26;;;;;;;1.90;0.70;;;30.10;28.10;;;;;;5006469;28;20065;-72
2021/06/02 12:08:12;;;;;;;2.28;0.70;;;30.20;28.40;;;;;;5000636;28;20493;-73
2021/06/02 12:10:47;;;;;;;2.47;0.63;;;30.20;28.40;;;;;;5001564;28;20034;-73
2021/06/02 12:13:24;;;;;;;3.35;0.70;;;30.20;27.20;;;;;;5001885;28;20475;-72
2021/06/02 12:15:55;;;;;;;4.38;0.70;;;30.20;26.60;;;;;;5001462;28;20026;-74
2021/06/02 12:18:36;;;;;;;4.93;0.70;;;30.10;27.60;;;;;;5001574;28;20057;-73
2021/06/02 12:21:14;;;;;;;3.97;0.60;;;30.60;27.90;;;;;;5000362;28;20049;-73
2021/06/02 12:23:52;;;;;;;1.35;0.52;;;30.30;27.60;;;;;;5001438;28;20050;-73
2021/06/02 12:26:18;;;;;;;2.95;0.50;;;30.00;27.50;;;;;;5000540;28;20028;-73
2021/06/02 12:28:45;;;;;;;2.22;0.50;;;30.00;27.80;;;;;;5001025;28;20030;-73
2021/06/02 12:31:34;;;;;;;1.60;0.55;;;30.10;27.50;;;;;;5001506;28;20026;-74
2021/06/02 12:34:11;;;;;;;1.25;0.50;;;30.00;27.30;;;;;;5004857;28;20029;-77
2021/06/02 12:36:45;;;;;;;1.80;0.50;;;30.10;27.70;;;;;;5007937;28;20108;-74
2021/06/02 12:39:12;;;;;;;3.78;0.60;;;30.30;27.40;;;;;;5012682;28;20167;-74
2021/06/02 12:41:42;;;;;;;2.67;0.50;;;30.30;27.60;;;;;;5012926;28;20159;-75
2021/06/02 12:44:08;;;;;;;1.33;0.60;;;30.40;27.20;;;;;;5014193;28;20109;-74
2021/06/02 12:46:34;;;;;;;1.60;0.80;;;30.50;27.60;;;;;;5011853;28;20109;-74
2021/06/02 12:49:04;;;;;;;1.63;0.60;;;30.70;26.90;;;;;;5012134;28;20067;-76
2021/06/02 12:51:30;;;;;;;3.65;0.63;;;30.50;26.80;;;;;;5013767;28;20470;-74
2021/06/02 12:53:56;;;;;;;2.42;0.65;;;30.20;27.50;;;;;;5015412;28;20105;-73
2021/06/02 12:56:22;;;;;;;7.03;0.75;;;29.90;27.40;;;;;;5009152;28;20057;-73
2021/06/02 12:58:58;;;;;;;3.22;0.77;;;29.60;27.30;;;;;;5015210;28;20026;-74
2021/06/02 13:01:31;;;;;;;2.05;0.50;;;29.70;27.50;;;;;;5013495;28;20383;-73
2021/06/02 13:03:58;;;;;;;;;;;29.80;27.30;;;;;;5015475;28;20534;-75
2021/06/02 13:06:26;;;;;;;1.05;0.50;;;29.70;27.40;;;;;;5013605;28;19918;-74
2021/06/02 13:08:52;;;;;;;2.08;0.60;;;29.70;27.30;;;;;;5016379;28;20113;-72
2021/06/02 13:11:30;;;;;;;1.75;0.55;;;29.60;27.40;;;;;;5013830;28;20096;-73
2021/06/02 13:13:59;;;;;;;0.70;0.40;;;29.60;27.40;;;;;;5015997;28;20033;-74
2021/06/02 13:16:25;;;;;;;2.13;0.50;;;29.60;27.30;;;;;;4996320;28;20026;-73
2021/06/02 13:18:59;;;;;;;2.55;0.70;;;29.60;27.50;;;;;;5005641;28;20545;-74
2021/06/02 13:21:30;;;;;;;4.90;0.60;;;29.70;27.30;;;;;;5023140;28;20038;-73
2021/06/02 13:24:16;;;;;;;4.47;0.60;;;29.60;27.00;;;;;;5026003;28;20137;-73
2021/06/02 13:26:58;;;;;;;3.20;0.50;;;29.80;27.40;;;;;;5024573;28;20872;-73
2021/06/02 13:29:23;;;;;;;5.18;0.50;;;30.10;27.30;;;;;;5025396;28;20041;-72